Time;durP1;ratioP1;P1;durP2;ratioP2;P2;SDS_P1;SDS_P2;PMS_P1;PMS_P2;Temp;Humidity;BMP_temperature;BMP_pressure;BME280_temperature;BME280_humidity;BME280_pressure;Samples;Min_cycle;Max_cycle;Signal;HPM_P1;HPM_P2
2021/11/21 00:00:59;;;;;;;;;;;;;;;2.98;59.50;95381.13;5018509;28;20488;-60
2021/11/21 00:03:24;;;;;;;;;;;;;;;2.51;60.59;95379.91;5019323;28;20020;-60
2021/11/21 00:05:49;;;;;;;;;;;;;;;2.74;59.90;95372.66;5018912;28;20237;-61
2021/11/21 00:08:14;;;;;;;;;;;;;;;2.14;61.93;95376.88;4998979;28;19929;-62
2021/11/21 00:10:40;;;;;;;;;;;;;;;2.10;62.33;95370.22;5016950;28;19921;-61
2021/11/21 00:13:05;;;;;;;;;;;;;;;1.91;62.41;95367.50;5016935;28;20020;-60
2021/11/21 00:15:31;;;;;;;;;;;;;;;1.80;62.10;95358.72;5019559;28;19928;-59
2021/11/21 00:17:56;;;;;;;;;;;;;;;1.43;64.04;95367.03;5018480;28;19921;-61
2021/11/21 00:20:21;;;;;;;;;;;;;;;1.43;64.01;95356.53;5027679;28;20008;-60
2021/11/21 00:22:46;;;;;;;;;;;;;;;0.91;64.54;95349.31;5023755;28;20448;-60
2021/11/21 00:25:12;;;;;;;;;;;;;;;1.02;65.23;95335.38;5019410;28;20228;-60
2021/11/21 00:27:37;;;;;;;;;;;;;;;0.40;66.75;95349.81;5013326;28;19991;-57
2021/11/21 00:30:03;;;;;;;;;;;;;;;0.05;68.48;95350.78;5011857;28;19932;-55
2021/11/21 00:32:29;;;;;;;;;;;;;;;0.07;68.32;95344.47;5018388;28;20020;-58
2021/11/21 00:34:54;;;;;;;;;;;;;;;0.17;68.80;95346.38;5019485;28;19971;-57
2021/11/21 00:37:19;;;;;;;;;;;;;;;0.19;68.81;95340.06;5019330;28;19959;-58
2021/11/21 00:39:44;;;;;;;;;;;;;;;0.16;68.68;95336.84;5019106;28;20413;-58
2021/11/21 00:42:10;;;;;;;;;;;;;;;-0.01;69.18;95346.84;5019470;28;19975;-57
2021/11/21 00:44:35;;;;;;;;;;;;;;;-0.44;70.61;95333.47;5019267;28;19965;-59
2021/11/21 00:47:00;;;;;;;;;;;;;;;-0.51;71.95;95331.44;5019791;28;20616;-56
2021/11/21 00:49:26;;;;;;;;;;;;;;;-0.63;72.36;95330.56;5011848;28;19972;-56
2021/11/21 00:51:51;;;;;;;;;;;;;;;-0.27;71.22;95326.13;5018145;28;19925;-58
2021/11/21 00:57:00;;;;;;;;;;;;;;;-0.15;70.45;95324.34;5018807;28;19968;-58
2021/11/21 00:59:25;;;;;;;;;;;;;;;0.18;69.62;95327.09;5019536;28;19964;-59
2021/11/21 01:01:51;;;;;;;;;;;;;;;0.01;69.86;95317.94;5018362;28;20382;-60
2021/11/21 01:04:16;;;;;;;;;;;;;;;0.06;69.68;95321.84;5002423;28;19995;-57
2021/11/21 01:06:42;;;;;;;;;;;;;;;-0.09;69.99;95317.81;5022450;28;20040;-58
2021/11/21 01:09:07;;;;;;;;;;;;;;;-0.09;69.77;95315.19;5021902;28;19964;-58
2021/11/21 01:11:32;;;;;;;;;;;;;;;0.24;68.19;95313.50;5022249;28;19993;-59
2021/11/21 01:13:58;;;;;;;;;;;;;;;0.04;68.93;95294.13;5022426;28;20370;-58
2021/11/21 01:16:23;;;;;;;;;;;;;;;0.19;68.97;95294.72;5021757;28;20110;-59
2021/11/21 01:18:48;;;;;;;;;;;;;;;0.05;69.06;95294.03;5022200;28;19921;-60
2021/11/21 01:21:13;;;;;;;;;;;;;;;-0.29;70.84;95287.94;5021738;28;20280;-58
2021/11/21 01:23:39;;;;;;;;;;;;;;;0.25;69.04;95288.16;5022277;28;19934;-58
2021/11/21 01:26:04;;;;;;;;;;;;;;;0.03;68.96;95282.81;5021832;28;20007;-58
2021/11/21 01:28:29;;;;;;;;;;;;;;;0.26;68.78;95271.47;5021112;28;20162;-58
2021/11/21 01:30:54;;;;;;;;;;;;;;;0.24;68.03;95276.03;5021810;28;20068;-59
2021/11/21 01:33:20;;;;;;;;;;;;;;;0.52;67.10;95274.66;5021196;28;19931;-59
2021/11/21 01:35:45;;;;;;;;;;;;;;;0.39;68.15;95273.97;5021483;28;19917;-59
2021/11/21 01:38:10;;;;;;;;;;;;;;;0.01;69.18;95271.66;5022193;28;19927;-58
2021/11/21 01:40:36;;;;;;;;;;;;;;;0.50;66.79;95266.06;5021423;28;19921;-60
2021/11/21 01:43:01;;;;;;;;;;;;;;;0.40;67.51;95259.91;5021514;28;20416;-58
2021/11/21 01:45:26;;;;;;;;;;;;;;;0.18;68.54;95256.41;5026311;28;20259;-58
2021/11/21 01:47:52;;;;;;;;;;;;;;;-0.12;69.10;95260.47;5020925;28;20251;-58
2021/11/21 01:50:18;;;;;;;;;;;;;;;-0.04;68.89;95252.84;5021067;28;20020;-57
2021/11/21 01:52:44;;;;;;;;;;;;;;;0.30;68.01;95242.31;5020205;28;19994;-59
2021/11/21 01:55:09;;;;;;;;;;;;;;;0.04;68.66;95245.22;5020645;28;19917;-59
2021/11/21 01:57:34;;;;;;;;;;;;;;;0.07;66.28;95246.75;5021073;28;19921;-57
2021/11/21 02:00:02;;;;;;;;;;;;;;;0.06;67.69;95240.69;5021178;28;19913;-58
2021/11/21 02:02:28;;;;;;;;;;;;;;;-0.03;66.82;95241.41;5021397;28;20373;-58
2021/11/21 02:04:53;;;;;;;;;;;;;;;0.20;66.65;95234.38;5021345;28;19929;-59
2021/11/21 02:07:18;;;;;;;;;;;;;;;-0.72;69.94;95251.88;5017036;28;20275;-59
2021/11/21 02:09:43;;;;;;;;;;;;;;;-0.67;70.05;95242.84;5021209;28;19987;-58
2021/11/21 02:12:09;;;;;;;;;;;;;;;-0.56;70.42;95232.41;5014751;28;19925;-58
2021/11/21 02:14:34;;;;;;;;;;;;;;;-0.61;68.93;95224.09;5020518;28;19982;-60
2021/11/21 02:16:59;;;;;;;;;;;;;;;-0.35;68.94;95223.84;5029361;28;19967;-58
2021/11/21 02:19:24;;;;;;;;;;;;;;;-0.24;69.04;95215.97;5003835;28;19928;-58
2021/11/21 02:21:50;;;;;;;;;;;;;;;-0.13;68.76;95214.31;5021773;28;19921;-59
2021/11/21 02:24:15;;;;;;;;;;;;;;;0.14;67.14;95215.69;5021727;28;20610;-60
2021/11/21 02:26:40;;;;;;;;;;;;;;;0.28;66.91;95210.16;5021559;28;20146;-59
2021/11/21 02:29:05;;;;;;;;;;;;;;;0.57;66.31;95201.75;4998795;28;19931;-58
2021/11/21 02:31:31;;;;;;;;;;;;;;;0.08;67.76;95194.28;5021492;28;19929;-59
2021/11/21 02:33:56;;;;;;;;;;;;;;;0.54;66.21;95188.91;5021628;28;19921;-58
2021/11/21 02:36:23;;;;;;;;;;;;;;;0.37;66.78;95187.66;5021455;28;19945;-57
2021/11/21 02:38:48;;;;;;;;;;;;;;;0.01;67.95;95187.03;5021167;28;19921;-59
2021/11/21 02:41:13;;;;;;;;;;;;;;;0.31;66.99;95183.75;4995523;28;19936;-57
2021/11/21 02:43:39;;;;;;;;;;;;;;;0.81;65.33;95189.34;5020962;28;20366;-58
2021/11/21 02:46:04;;;;;;;;;;;;;;;0.02;68.20;95176.47;5021399;28;20380;-59
2021/11/21 02:48:31;;;;;;;;;;;;;;;0.24;67.40;95182.56;5021119;28;20341;-58
2021/11/21 02:50:56;;;;;;;;;;;;;;;0.21;67.47;95167.13;5018356;28;19921;-58
2021/11/21 02:53:22;;;;;;;;;;;;;;;0.38;66.65;95170.97;5033686;28;20444;-60
2021/11/21 02:55:50;;;;;;;;;;;;;;;0.51;66.22;95167.38;5002747;28;19917;-59
2021/11/21 02:58:15;;;;;;;;;;;;;;;1.14;63.95;95163.06;5026285;28;19921;-58
2021/11/21 03:00:40;;;;;;;;;;;;;;;1.32;63.05;95158.03;5027941;28;20448;-59
2021/11/21 03:03:06;;;;;;;;;;;;;;;1.90;60.79;95143.47;5020674;28;19917;-58
2021/11/21 03:05:32;;;;;;;;;;;;;;;2.14;60.30;95151.00;5015853;28;20011;-60
2021/11/21 03:07:57;;;;;;;;;;;;;;;2.62;58.68;95143.25;5020077;28;20298;-60
2021/11/21 03:10:22;;;;;;;;;;;;;;;2.43;58.42;95143.25;5020831;28;19917;-60
2021/11/21 03:12:48;;;;;;;;;;;;;;;2.26;58.99;95143.81;5023796;28;20345;-59
2021/11/21 03:15:14;;;;;;;;;;;;;;;2.52;58.60;95151.13;5024517;28;19928;-60
2021/11/21 03:17:42;;;;;;;;;;;;;;;2.04;59.69;95149.31;5024476;28;19917;-59
2021/11/21 03:20:08;;;;;;;;;;;;;;;1.48;62.03;95150.53;5022538;28;19935;-59
2021/11/21 03:22:33;;;;;;;;;;;;;;;1.86;61.23;95142.09;4998010;28;19921;-59
2021/11/21 03:24:58;;;;;;;;;;;;;;;2.06;60.41;95142.97;5037121;28;19947;-59
2021/11/21 03:27:26;;;;;;;;;;;;;;;2.02;60.40;95141.56;5021095;28;20052;-59
2021/11/21 03:29:51;;;;;;;;;;;;;;;2.09;60.10;95132.19;5037439;28;19917;-59
2021/11/21 03:32:17;;;;;;;;;;;;;;;2.03;59.92;95129.25;5024564;28;19927;-58
2021/11/21 03:34:42;;;;;;;;;;;;;;;2.18;59.14;95120.00;5024751;28;19964;-60
2021/11/21 03:37:07;;;;;;;;;;;;;;;1.88;60.16;95121.78;5024049;28;19927;-59
2021/11/21 03:39:33;;;;;;;;;;;;;;;2.36;59.12;95125.44;5024705;28;19924;-60
2021/11/21 03:41:58;;;;;;;;;;;;;;;2.76;58.00;95122.75;5029159;28;19962;-59
2021/11/21 03:44:23;;;;;;;;;;;;;;;2.95;56.25;95110.53;5031682;28;19932;-59
2021/11/21 03:46:48;;;;;;;;;;;;;;;3.06;56.94;95115.63;5024307;28;20087;-59
2021/11/21 03:49:14;;;;;;;;;;;;;;;3.26;56.00;95112.91;5023837;28;20013;-60
2021/11/21 03:51:39;;;;;;;;;;;;;;;3.64;55.08;95105.84;5024329;28;20315;-60
2021/11/21 03:54:04;;;;;;;;;;;;;;;3.62;54.76;95105.19;5023838;28;20259;-60
2021/11/21 03:56:30;;;;;;;;;;;;;;;3.93;53.69;95101.38;5023765;28;20000;-59
2021/11/21 03:58:55;;;;;;;;;;;;;;;3.78;54.47;95101.06;5024487;28;20458;-65
2021/11/21 04:01:20;;;;;;;;;;;;;;;3.87;54.08;95096.69;5024014;28;20485;-60
2021/11/21 04:03:46;;;;;;;;;;;;;;;3.97;54.23;95094.00;5024077;28;20011;-60
2021/11/21 04:06:11;;;;;;;;;;;;;;;3.93;53.25;95094.31;5023580;28;19985;-61
2021/11/21 04:08:36;;;;;;;;;;;;;;;3.81;54.53;95084.97;5023858;28;20096;-59
2021/11/21 04:11:02;;;;;;;;;;;;;;;3.99;54.45;95077.09;5024001;28;20012;-60
2021/11/21 04:13:27;;;;;;;;;;;;;;;4.29;53.34;95077.69;5023705;28;20413;-61
2021/11/21 04:15:52;;;;;;;;;;;;;;;4.37;53.77;95076.94;5023820;28;20476;-60
2021/11/21 04:18:18;;;;;;;;;;;;;;;4.34;53.33;95074.59;5023702;28;20044;-60
2021/11/21 04:20:44;;;;;;;;;;;;;;;4.33;52.72;95070.31;5023567;28;19993;-60
2021/11/21 04:23:09;;;;;;;;;;;;;;;4.37;52.48;95071.66;5023150;28;19973;-59
2021/11/21 04:25:34;;;;;;;;;;;;;;;4.43;52.53;95064.94;5010003;28;19990;-60
2021/11/21 04:28:00;;;;;;;;;;;;;;;4.48;52.91;95062.66;5023494;28;19981;-60
2021/11/21 04:30:25;;;;;;;;;;;;;;;4.44;52.19;95064.81;5023679;28;20418;-60
2021/11/21 04:32:52;;;;;;;;;;;;;;;4.56;52.41;95068.00;5022939;28;21408;-61
2021/11/21 04:35:18;;;;;;;;;;;;;;;4.19;53.33;95061.13;5023866;28;20019;-60
2021/11/21 04:37:43;;;;;;;;;;;;;;;4.08;53.74;95056.91;5023511;28;19993;-60
2021/11/21 04:40:09;;;;;;;;;;;;;;;3.73;54.21;95055.91;5027398;28;19985;-60
2021/11/21 04:42:34;;;;;;;;;;;;;;;3.32;56.46;95053.63;5028048;28;20323;-60
2021/11/21 04:44:59;;;;;;;;;;;;;;;3.50;54.75;95045.81;5009747;28;20458;-60
2021/11/21 04:47:25;;;;;;;;;;;;;;;3.86;53.77;95048.50;5027593;28;19979;-59
2021/11/21 04:49:51;;;;;;;;;;;;;;;3.85;54.65;95044.22;5027081;28;20047;-60
2021/11/21 04:52:16;;;;;;;;;;;;;;;4.15;53.42;95055.31;5026976;28;20067;-61
2021/11/21 04:54:41;;;;;;;;;;;;;;;4.14;53.40;95058.09;5027397;28;19986;-61
2021/11/21 04:57:07;;;;;;;;;;;;;;;4.13;54.21;95048.56;5027114;28;20460;-61
2021/11/21 04:59:33;;;;;;;;;;;;;;;4.32;53.70;95050.22;5009611;28;20294;-61
2021/11/21 05:01:58;;;;;;;;;;;;;;;4.18;53.45;95047.13;5026355;28;20176;-61
2021/11/21 05:04:24;;;;;;;;;;;;;;;4.21;54.21;95046.00;5008955;28;19989;-60
2021/11/21 05:06:49;;;;;;;;;;;;;;;3.53;55.04;95045.50;5027246;28;20004;-61
2021/11/21 05:09:14;;;;;;;;;;;;;;;3.91;54.80;95040.97;5026522;28;20005;-61
2021/11/21 05:11:39;;;;;;;;;;;;;;;3.03;56.86;95044.91;5027173;28;20028;-59
2021/11/21 05:14:05;;;;;;;;;;;;;;;3.52;56.05;95039.44;5026374;28;19998;-61
2021/11/21 05:16:30;;;;;;;;;;;;;;;3.90;54.84;95041.94;5026607;28;19989;-61
2021/11/21 05:18:56;;;;;;;;;;;;;;;4.12;54.19;95039.81;5026761;28;19977;-61
2021/11/21 05:21:21;;;;;;;;;;;;;;;3.98;54.22;95037.72;5026829;28;20088;-61
2021/11/21 05:23:47;;;;;;;;;;;;;;;4.04;53.91;95031.84;5020880;28;20423;-60
2021/11/21 05:26:12;;;;;;;;;;;;;;;4.17;53.04;95032.31;5017354;28;19974;-60
2021/11/21 05:28:37;;;;;;;;;;;;;;;4.11;54.16;95032.09;5026579;28;20482;-60
2021/11/21 05:31:02;;;;;;;;;;;;;;;4.39;52.94;95024.06;5026703;28;20462;-60
2021/11/21 05:33:27;;;;;;;;;;;;;;;4.27;53.53;95031.38;5026440;28;20025;-60
2021/11/21 05:35:53;;;;;;;;;;;;;;;4.28;53.22;95035.66;5026421;28;19974;-61
2021/11/21 05:38:18;;;;;;;;;;;;;;;4.22;53.54;95028.38;5026928;28;19966;-60
2021/11/21 05:40:43;;;;;;;;;;;;;;;4.29;53.63;95029.44;5026471;28;20004;-60
2021/11/21 05:43:08;;;;;;;;;;;;;;;4.67;51.95;95026.56;5026884;28;19977;-59
2021/11/21 05:45:34;;;;;;;;;;;;;;;4.74;52.04;95021.47;5026140;28;20318;-61
2021/11/21 05:47:59;;;;;;;;;;;;;;;4.30;52.96;95025.81;5026593;28;19978;-60
2021/11/21 05:50:25;;;;;;;;;;;;;;;4.70;52.06;95027.06;5025146;28;20254;-60
2021/11/21 05:52:50;;;;;;;;;;;;;;;4.64;51.90;95027.69;5008109;28;20043;-61
2021/11/21 05:55:16;;;;;;;;;;;;;;;4.51;51.97;95028.09;5026566;28;20008;-60
2021/11/21 05:57:41;;;;;;;;;;;;;;;4.11;53.32;95032.09;5025819;28;20036;-59
2021/11/21 06:00:08;;;;;;;;;;;;;;;4.70;52.03;95024.41;5025880;28;19989;-60
2021/11/21 06:02:33;;;;;;;;;;;;;;;4.52;51.54;95027.09;5026386;28;20443;-62
2021/11/21 06:04:58;;;;;;;;;;;;;;;4.30;52.83;95023.16;5026069;28;19990;-59
2021/11/21 06:07:27;;;;;;;;;;;;;;;4.63;51.87;95019.94;5025880;28;19985;-59
2021/11/21 06:09:52;;;;;;;;;;;;;;;3.99;52.79;95023.56;5025943;28;20001;-62
2021/11/21 06:12:17;;;;;;;;;;;;;;;4.07;52.78;95021.00;5025228;28;20008;-60
2021/11/21 06:14:42;;;;;;;;;;;;;;;3.66;54.16;95017.03;5026276;28;19977;-60
2021/11/21 06:17:08;;;;;;;;;;;;;;;3.53;54.89;95019.19;5025788;28;20092;-60
2021/11/21 06:19:35;;;;;;;;;;;;;;;3.85;55.06;95012.59;5026651;28;20060;-61
2021/11/21 06:22:00;;;;;;;;;;;;;;;3.32;54.75;95012.34;5024756;28;19994;-60
2021/11/21 06:24:25;;;;;;;;;;;;;;;3.78;53.63;95016.81;5015239;28;20482;-61
2021/11/21 06:26:51;;;;;;;;;;;;;;;4.29;52.36;95009.16;5021915;28;19978;-61
2021/11/21 06:29:17;;;;;;;;;;;;;;;3.97;52.83;95009.72;5007557;28;19989;-61
2021/11/21 06:31:43;;;;;;;;;;;;;;;3.94;53.49;95010.84;5025789;28;20001;-60
2021/11/21 06:34:08;;;;;;;;;;;;;;;3.88;54.28;95006.22;5025536;28;19969;-61
2021/11/21 06:36:33;;;;;;;;;;;;;;;4.21;52.49;95003.81;5024991;28;19989;-60
2021/11/21 06:38:59;;;;;;;;;;;;;;;4.35;52.28;95009.53;5025673;28;20352;-59
2021/11/21 06:41:24;;;;;;;;;;;;;;;4.49;51.53;95002.88;5025118;28;20001;-62
2021/11/21 06:43:49;;;;;;;;;;;;;;;4.45;51.88;95000.53;5007277;28;20504;-61
2021/11/21 06:46:15;;;;;;;;;;;;;;;4.32;52.30;95006.22;5025207;28;19977;-60
2021/11/21 06:48:40;;;;;;;;;;;;;;;4.27;52.75;95007.66;5025094;28;19996;-60
2021/11/21 06:51:07;;;;;;;;;;;;;;;4.34;52.52;95003.44;5025057;28;19989;-62
2021/11/21 06:53:32;;;;;;;;;;;;;;;4.41;52.16;95011.53;5025032;28;20050;-61
2021/11/21 06:55:57;;;;;;;;;;;;;;;4.49;52.00;95006.31;5024792;28;20426;-61
2021/11/21 06:58:25;;;;;;;;;;;;;;;3.84;53.46;95012.75;5025177;28;19969;-60
2021/11/21 07:00:50;;;;;;;;;;;;;;;4.07;53.04;95015.75;5024789;28;20138;-61
2021/11/21 07:03:15;;;;;;;;;;;;;;;4.17;53.08;95000.69;5024898;28;20008;-60
2021/11/21 07:05:41;;;;;;;;;;;;;;;3.77;53.71;95010.72;5024590;28;19985;-60
2021/11/21 07:08:06;;;;;;;;;;;;;;;4.13;53.28;95001.13;5024849;28;20028;-61
2021/11/21 07:10:31;;;;;;;;;;;;;;;3.90;53.15;94999.81;5024992;28;20665;-61
2021/11/21 07:12:58;;;;;;;;;;;;;;;3.40;54.98;95001.91;5024877;28;20012;-61
2021/11/21 07:15:23;;;;;;;;;;;;;;;3.27;54.92;95010.16;5024934;28;19981;-60
2021/11/21 07:17:51;;;;;;;;;;;;;;;3.91;54.71;95000.63;5024356;28;20372;-60
2021/11/21 07:20:16;;;;;;;;;;;;;;;4.27;52.95;94999.75;5024493;28;19985;-61
2021/11/21 07:22:45;;;;;;;;;;;;;;;4.25;52.57;95004.38;5022870;28;20457;-61
2021/11/21 07:25:12;;;;;;;;;;;;;;;4.09;53.58;95005.88;5010994;28;19989;-60
2021/11/21 07:27:37;;;;;;;;;;;;;;;4.62;52.29;95002.47;5024880;28;19996;-61
2021/11/21 07:30:02;;;;;;;;;;;;;;;4.77;51.35;95000.06;5024132;28;20530;-61
2021/11/21 07:32:28;;;;;;;;;;;;;;;4.61;51.39;94999.00;5024452;28;19993;-60
2021/11/21 07:34:53;;;;;;;;;;;;;;;4.37;51.96;94999.66;5024143;28;20421;-61
2021/11/21 07:37:18;;;;;;;;;;;;;;;4.61;52.07;94995.53;5024449;28;20765;-61
2021/11/21 07:39:43;;;;;;;;;;;;;;;4.24;53.39;95000.06;5023906;28;19992;-61
2021/11/21 07:42:09;;;;;;;;;;;;;;;4.09;53.66;94999.78;5024744;28;19962;-61
2021/11/21 07:44:34;;;;;;;;;;;;;;;4.25;53.18;95012.28;5024117;28;20088;-60
2021/11/21 07:46:59;;;;;;;;;;;;;;;4.28;53.55;95007.50;5024149;28;20385;-61
2021/11/21 07:49:24;;;;;;;;;;;;;;;3.71;54.54;95005.22;5023973;28;19997;-60
2021/11/21 07:51:50;;;;;;;;;;;;;;;3.79;53.91;95002.66;5024035;28;19993;-60
2021/11/21 07:54:15;;;;;;;;;;;;;;;3.05;57.21;94995.59;5024025;28;20346;-61
2021/11/21 07:56:40;;;;;;;;;;;;;;;2.92;58.28;94998.56;5023967;28;19985;-60
2021/11/21 07:59:06;;;;;;;;;;;;;;;3.25;55.65;94998.13;5024066;28;19984;-60
2021/11/21 08:01:31;;;;;;;;;;;;;;;4.32;53.19;94998.31;5024067;28;20516;-61
2021/11/21 08:03:56;;;;;;;;;;;;;;;3.99;54.23;94997.22;5023596;28;19985;-62
2021/11/21 08:06:21;;;;;;;;;;;;;;;3.82;54.31;95002.38;5024380;28;20039;-59
2021/11/21 08:08:47;;;;;;;;;;;;;;;4.10;53.63;94996.16;5023357;28;20009;-61
2021/11/21 08:11:12;;;;;;;;;;;;;;;4.16;52.91;95001.66;5011055;28;19989;-61
2021/11/21 08:13:39;;;;;;;;;;;;;;;4.09;54.15;94998.00;5037121;28;19994;-60
2021/11/21 08:16:04;;;;;;;;;;;;;;;3.64;55.48;94999.72;5021418;28;19969;-61
2021/11/21 08:18:29;;;;;;;;;;;;;;;3.65;55.64;95004.00;5025423;28;20389;-59
2021/11/21 08:20:54;;;;;;;;;;;;;;;3.40;56.86;95008.97;5023737;28;19937;-60
2021/11/21 08:23:20;;;;;;;;;;;;;;;3.40;57.01;95015.06;5020555;28;20389;-61
2021/11/21 08:25:45;;;;;;;;;;;;;;;3.43;56.36;95006.06;5022247;28;19925;-60
2021/11/21 08:28:10;;;;;;;;;;;;;;;3.67;54.86;95010.78;5022978;28;20139;-60
2021/11/21 08:30:37;;;;;;;;;;;;;;;3.36;57.00;95012.88;5024149;28;20453;-60
2021/11/21 08:33:06;;;;;;;;;;;;;;;4.15;54.61;95007.09;5023480;28;20401;-61
2021/11/21 08:35:32;;;;;;;;;;;;;;;3.81;54.54;95000.69;5023866;28;19917;-59
2021/11/21 08:37:57;;;;;;;;;;;;;;;4.33;54.57;94996.50;5018132;28;20404;-61
2021/11/21 08:40:22;;;;;;;;;;;;;;;3.25;55.77;95017.38;5019748;28;20305;-60
2021/11/21 08:42:47;;;;;;;;;;;;;;;3.75;55.90;95007.41;5017280;28;19925;-59
2021/11/21 08:45:13;;;;;;;;;;;;;;;4.22;53.85;95002.84;5023161;28;19966;-60
2021/11/21 08:47:38;;;;;;;;;;;;;;;4.53;53.04;95004.22;5023211;28;19921;-61
2021/11/21 08:50:04;;;;;;;;;;;;;;;3.59;55.74;95002.81;5022644;28;19994;-59
2021/11/21 08:52:29;;;;;;;;;;;;;;;4.01;55.16;95000.56;5022706;28;20015;-60
2021/11/21 08:54:54;;;;;;;;;;;;;;;3.76;56.18;95009.06;5023386;28;19925;-60
2021/11/21 08:57:20;;;;;;;;;;;;;;;4.55;54.14;95005.72;5021844;28;19925;-60
2021/11/21 08:59:45;;;;;;;;;;;;;;;4.85;53.01;95005.38;5021959;28;20442;-61
2021/11/21 09:02:10;;;;;;;;;;;;;;;5.15;51.90;95003.25;5025724;28;19921;-60
2021/11/21 09:04:35;;;;;;;;;;;;;;;5.16;51.86;94996.97;5022547;28;20456;-61
2021/11/21 09:07:01;;;;;;;;;;;;;;;5.05;52.42;94997.22;5022108;28;19921;-61
2021/11/21 09:09:26;;;;;;;;;;;;;;;4.61;53.42;95000.78;5021977;28;19991;-60
2021/11/21 09:11:51;;;;;;;;;;;;;;;4.60;52.95;94994.72;5022020;28;20394;-60
2021/11/21 09:14:17;;;;;;;;;;;;;;;4.29;54.18;95005.72;5022576;28;19927;-60
2021/11/21 09:16:42;;;;;;;;;;;;;;;4.34;54.90;95000.78;5022288;28;19925;-60
2021/11/21 09:19:08;;;;;;;;;;;;;;;4.40;54.65;95009.91;5022527;28;19995;-60
2021/11/21 09:21:33;;;;;;;;;;;;;;;4.26;55.03;95001.59;5021619;28;19932;-61
2021/11/21 09:23:58;;;;;;;;;;;;;;;3.59;57.33;95004.59;5019747;28;19943;-58
2021/11/21 09:26:26;;;;;;;;;;;;;;;4.30;55.36;95010.00;5021766;28;19917;-61
2021/11/21 09:28:52;;;;;;;;;;;;;;;4.36;54.39;95014.66;5021360;28;19937;-61
2021/11/21 09:31:17;;;;;;;;;;;;;;;4.45;54.91;95018.16;5021655;28;20570;-60
2021/11/21 09:33:42;;;;;;;;;;;;;;;4.23;54.80;95017.69;5021340;28;19965;-59
2021/11/21 09:36:10;;;;;;;;;;;;;;;4.03;55.45;95014.38;5021308;28;20134;-61
2021/11/21 09:38:35;;;;;;;;;;;;;;;3.85;55.48;95009.13;5021691;28;19925;-60
2021/11/21 09:41:00;;;;;;;;;;;;;;;4.17;55.65;95008.59;5019687;28;20181;-61
2021/11/21 09:43:26;;;;;;;;;;;;;;;4.31;54.39;95007.22;5021629;28;19932;-60
2021/11/21 09:45:51;;;;;;;;;;;;;;;4.26;54.29;95006.84;5015758;28;20214;-61
2021/11/21 09:48:16;;;;;;;;;;;;;;;4.19;55.54;95008.44;5021079;28;20348;-60
2021/11/21 09:50:42;;;;;;;;;;;;;;;4.24;55.81;95010.59;5022066;28;19921;-61
2021/11/21 09:53:07;;;;;;;;;;;;;;;4.11;54.37;95005.75;5021050;28;19921;-59
2021/11/21 09:55:33;;;;;;;;;;;;;;;3.38;58.14;95011.78;5018362;28;19921;-62
2021/11/21 09:57:58;;;;;;;;;;;;;;;4.00;56.31;94993.63;5021388;28;19971;-60
2021/11/21 10:00:24;;;;;;;;;;;;;;;4.15;55.48;94997.34;5017365;28;19924;-61
2021/11/21 10:03:08;;;;;;;;;;;;;;;3.98;55.27;94995.59;5021463;28;20478;-60
2021/11/21 10:05:35;;;;;;;;;;;;;;;4.43;53.95;94989.31;5036661;28;19927;-59
2021/11/21 10:08:00;;;;;;;;;;;;;;;4.67;53.83;94985.19;5020304;28;19955;-60
2021/11/21 10:10:26;;;;;;;;;;;;;;;4.89;53.21;94993.53;5014143;28;20390;-59
2021/11/21 10:12:51;;;;;;;;;;;;;;;4.84;52.89;94991.34;5019733;28;20103;-60
2021/11/21 10:15:17;;;;;;;;;;;;;;;4.75;52.82;94984.41;5021467;28;19921;-60
2021/11/21 10:17:47;;;;;;;;;;;;;;;4.42;54.03;94997.41;5020518;28;19921;-60
2021/11/21 10:20:13;;;;;;;;;;;;;;;4.41;53.43;94993.94;5021174;28;19928;-60
2021/11/21 10:22:53;;;;;;;;;;;;;;;4.77;52.79;94986.88;5020041;28;20000;-60
2021/11/21 10:25:34;;;;;;;;;;;;;;;4.38;54.76;94988.13;5017969;28;19964;-59
2021/11/21 10:28:06;;;;;;;;;;;;;;;4.42;53.61;94981.59;5020985;28;20166;-59
2021/11/21 10:30:31;;;;;;;;;;;;;;;4.83;53.33;94971.25;5021125;28;19913;-60
2021/11/21 10:33:01;;;;;;;;;;;;;;;5.00;52.59;94970.50;5021130;28;19921;-58
2021/11/21 10:35:26;;;;;;;;;;;;;;;5.13;52.72;94967.47;5019827;28;19921;-59
2021/11/21 10:37:51;;;;;;;;;;;;;;;4.20;54.80;94975.84;5017562;28;19931;-59
2021/11/21 10:40:17;;;;;;;;;;;;;;;4.63;54.52;94972.47;5028557;28;19948;-60
2021/11/21 10:42:43;;;;;;;;;;;;;;;4.63;53.67;94962.72;5014951;28;20414;-60
2021/11/21 10:45:09;;;;;;;;;;;;;;;3.87;55.35;94967.66;5020789;28;19925;-60
2021/11/21 10:47:44;;;;;;;;;;;;;;;4.12;56.08;94960.78;5021248;28;20241;-59
2021/11/21 10:50:10;;;;;;;;;;;;;;;4.48;55.23;94969.56;5020902;28;19921;-60
2021/11/21 10:52:43;;;;;;;;;;;;;;;4.94;52.93;94958.78;5020411;28;20233;-59
2021/11/21 10:55:12;;;;;;;;;;;;;;;5.09;53.32;94954.56;5019945;28;19917;-61
2021/11/21 10:57:37;;;;;;;;;;;;;;;5.51;51.76;94959.13;5020425;28;19925;-61
2021/11/21 11:00:06;;;;;;;;;;;;;;;5.39;52.27;94956.81;5019663;28;20302;-61
2021/11/21 11:02:31;;;;;;;;;;;;;;;4.69;53.42;94962.13;5032891;28;19917;-60
2021/11/21 11:04:59;;;;;;;;;;;;;;;5.44;51.81;94954.50;5020188;28;19928;-58
2021/11/21 11:07:24;;;;;;;;;;;;;;;5.68;51.54;94960.81;5017981;28;19921;-60
2021/11/21 11:09:53;;;;;;;;;;;;;;;5.03;52.52;94952.53;5012381;28;19937;-61
2021/11/21 11:12:19;;;;;;;;;;;;;;;4.71;53.72;94951.41;5019963;28;20435;-59
2021/11/21 11:14:44;;;;;;;;;;;;;;;4.40;54.75;94958.03;5019908;28;20293;-60
2021/11/21 11:17:09;;;;;;;;;;;;;;;4.64;54.19;94945.13;5020241;28;20114;-60
2021/11/21 11:19:35;;;;;;;;;;;;;;;3.87;56.59;94957.97;5019901;28;20020;-60
2021/11/21 11:22:00;;;;;;;;;;;;;;;4.09;56.45;94955.84;5018762;28;19927;-60
2021/11/21 11:24:25;;;;;;;;;;;;;;;3.97;55.95;94957.88;5019687;28;19932;-59
2021/11/21 11:26:55;;;;;;;;;;;;;;;3.88;58.07;94959.59;5020235;28;19970;-60
2021/11/21 11:29:20;;;;;;;;;;;;;;;3.84;57.20;94947.72;5019964;28;19944;-61
2021/11/21 11:31:47;;;;;;;;;;;;;;;3.40;58.27;94954.53;5020335;28;20378;-59
2021/11/21 11:34:32;;;;;;;;;;;;;;;3.79;58.36;94947.38;5002504;28;19921;-60
2021/11/21 11:36:57;;;;;;;;;;;;;;;3.60;57.98;94949.16;5020063;28;20442;-60
2021/11/21 11:39:23;;;;;;;;;;;;;;;3.72;57.72;94946.31;5020604;28;20012;-59
2021/11/21 11:41:48;;;;;;;;;;;;;;;3.97;57.03;94946.50;5019589;28;19921;-59
2021/11/21 11:44:14;;;;;;;;;;;;;;;3.96;57.52;94945.69;5019884;28;19921;-60
2021/11/21 11:46:41;;;;;;;;;;;;;;;3.52;59.09;94949.94;5019750;28;20402;-61
2021/11/21 11:49:07;;;;;;;;;;;;;;;3.53;59.36;94948.13;5019719;28;19925;-60
2021/11/21 11:51:35;;;;;;;;;;;;;;;3.32;59.87;94946.56;5019752;28;20325;-61
2021/11/21 11:54:14;;;;;;;;;;;;;;;3.58;58.47;94947.66;5018997;28;20374;-60
2021/11/21 11:56:43;;;;;;;;;;;;;;;3.32;59.35;94941.31;5020043;28;19921;-59
2021/11/21 11:59:32;;;;;;;;;;;;;;;3.38;58.92;94948.63;5018785;28;19940;-60
2021/11/21 12:01:59;;;;;;;;;;;;;;;3.67;57.91;94946.75;4996887;28;20038;-61
2021/11/21 12:04:24;;;;;;;;;;;;;;;3.87;58.30;94941.31;5031743;28;19929;-60
2021/11/21 12:06:50;;;;;;;;;;;;;;;3.81;58.02;94946.22;5019835;28;20010;-61
2021/11/21 12:09:16;;;;;;;;;;;;;;;3.61;58.24;94947.38;5019421;28;19944;-61
2021/11/21 12:11:51;;;;;;;;;;;;;;;3.39;59.12;94947.63;5015052;28;19922;-61
2021/11/21 12:14:23;;;;;;;;;;;;;;;3.48;58.96;94942.47;5012886;28;20045;-60
2021/11/21 12:16:54;;;;;;;;;;;;;;;2.90;60.99;94945.31;5015000;28;20310;-60
2021/11/21 12:19:36;;;;;;;;;;;;;;;2.98;60.81;94942.78;5020343;28;20647;-59
2021/11/21 12:22:02;;;;;;;;;;;;;;;3.00;61.46;94947.88;5018337;28;19928;-61
2021/11/21 12:24:32;;;;;;;;;;;;;;;3.05;60.66;94943.00;5010600;28;19929;-59
2021/11/21 12:26:57;;;;;;;;;;;;;;;3.35;60.46;94927.03;5030142;28;19949;-62
2021/11/21 12:29:29;;;;;;;;;;;;;;;3.16;60.67;94928.81;5013680;28;19925;-60
2021/11/21 12:31:55;;;;;;;;;;;;;;;3.61;59.26;94931.59;5010078;28;19999;-61
2021/11/21 12:34:26;;;;;;;;;;;;;;;3.31;60.50;94931.78;5014638;28;19925;-61
2021/11/21 12:37:10;;;;;;;;;;;;;;;2.96;62.15;94928.13;5013509;28;19929;-60
2021/11/21 12:39:35;;;;;;;;;;;;;;;2.82;62.18;94930.25;5005013;28;19957;-60
2021/11/21 12:42:01;;;;;;;;;;;;;;;2.60;62.95;94934.09;5019615;28;19968;-60
2021/11/21 12:44:26;;;;;;;;;;;;;;;2.82;62.51;94932.88;5019421;28;19928;-59
2021/11/21 12:46:57;;;;;;;;;;;;;;;3.04;61.26;94936.09;5019850;28;19921;-59
2021/11/21 12:49:25;;;;;;;;;;;;;;;3.29;60.69;94928.44;5019260;28;19921;-60
2021/11/21 12:52:02;;;;;;;;;;;;;;;3.24;60.87;94926.28;5019224;28;19925;-60